Aérodrome :
LOGIN :

S'inscrire | Disclaimer

   EN    FR    IT 

 










Légende :    VFR   VFR Marginal   IFR   IFR Intensif   IFR Très Intensif
Visi : 
Plafond : 
>= 8 km
>= 3000ft
5 à 8 km
1000 à 3000 ft
1500m à 5 km
500 à 1000 ft
800 à 1500m
200 à 500 ft
< 800m
< 200 ft
Symboles :   Orages  Brouillard  Fortes neiges  Fortes précipitations  Vent > 20 kt
SIGMETs :   Divers  Orages  Givrage  Turbulence  Onde Orograph.  Cendres Volcan.






- Altitude de l'aérodrome : 645 ft
- Code IATA : DLE


LFGJ - Dole Tavaux

DERNIER METAR :
  • 221200Z AUTO 15007KT CAVOK 14/06 Q1003 NOSIG

METARs EXPIRÉS :
  • 221130Z AUTO 17006KT 130V210 CAVOK 14/07 Q1003 NOSIG
  • 221100Z AUTO 15005KT 120V190 CAVOK 13/06 Q1004 NOSIG
  • 221030Z AUTO 14005KT 110V170 CAVOK 12/07 Q1004 NOSIG
  • 221000Z AUTO 14005KT CAVOK 12/06 Q1005 NOSIG
  • 220930Z AUTO VRB03KT CAVOK 10/06 Q1005 NOSIG

TAF TAF LFGJ
Valide du 22 à 12h jusqu'au 22 à 21h UTC


221100Z 2212/2221 12008KT CAVOK



MET'MAP, la Météo Aéronautique d'un coup d'oeil ! - Copyright ORBIFLY Décembre 2007 - Disclaimer

ORBIFLY MET'MAP TEAM :

Programmation & Développement : Alexandra Zaïnal
Conception & Développement : Baudouin d'Aumeries
Co-Programmation & Développement : Marc-Olivier Méhu
Soutien technique & logistique : Manuel Goepfert

Contact : metmap@orbifly.com




SOURCES & CREDITS :

   NOAA